»·PEaware :: N3008U KCRQ-KSNA

N3008U :: KCRQ-KSNA

FLIGHT INFORMATION

Flight Status: Arrived
Operator: Privately registered:
United States
More flights under this callsign
Pilot: Alex C. (14758)
Aircraft: DEHAVILLAND DH-6 TWIN OTTER
(DHC6)
More flights by this aircraft type
Origin: KCRQ McClellan-Palomar
United States
Destination: KSNA John Wayne-Orange Co
United States
More flights between these airports :: More routes between these airports
Route: +OCN V23 SLI
File this flight plan on PilotEdge
Remarks: IFR KCRQ / KSNA TEC Route 6,000 / / G
Altitude:
(Current/Filed)
6,000ft
Speed:
(Current/Filed)
160kts
Departed: 22-Nov-17 04:58 PM
Arrived: 22-Nov-17 05:39 PM
Distance/Time
Traveled:
44nm/0:41
Distance/Time
To Go:
Arrived

Flight Plot

Page will automatically refresh every two minutes.


Map Options




Map Legend


Flown Route
Filed Route
Departure Airport
Arrival Airport
Navaid (VOR, NDB)
Fix

Horizontal Profiles

Position Reports

Time Latitude Longitude Heading Altitude Ground
Speed
22-Nov-17 16:29 33.127242 -117.278512 346 337ft 0kts
22-Nov-17 16:30 33.127242 -117.278512 346 337ft 0kts
22-Nov-17 16:31 33.127242 -117.278512 346 337ft 0kts
22-Nov-17 16:32 33.127242 -117.278512 346 337ft 0kts
22-Nov-17 16:33 33.127242 -117.278512 346 337ft 0kts
22-Nov-17 16:34 33.127242 -117.278512 346 337ft 0kts
22-Nov-17 16:35 33.127242 -117.278512 346 337ft 0kts
22-Nov-17 16:36 33.127242 -117.278512 346 337ft 0kts
22-Nov-17 16:37 33.127242 -117.278512 346 337ft 0kts
22-Nov-17 16:38 33.127242 -117.278512 346 337ft 0kts
22-Nov-17 16:39 33.127242 -117.278512 346 337ft 0kts
22-Nov-17 16:40 33.127242 -117.278512 346 337ft 0kts
22-Nov-17 16:41 33.127242 -117.278512 346 337ft 0kts
22-Nov-17 16:42 33.127242 -117.278512 346 337ft 0kts
22-Nov-17 16:43 33.127242 -117.278512 346 337ft 0kts
22-Nov-17 16:44 33.127242 -117.278512 346 337ft 0kts
22-Nov-17 16:45 33.127242 -117.278512 346 337ft 0kts
22-Nov-17 16:46 33.127242 -117.278512 346 337ft 0kts
22-Nov-17 16:47 33.127242 -117.278512 346 337ft 0kts
22-Nov-17 16:48 33.127242 -117.278512 346 337ft 0kts
22-Nov-17 16:49 33.127242 -117.278512 346 337ft 0kts
22-Nov-17 16:50 33.127242 -117.278512 346 337ft 0kts
22-Nov-17 16:51 33.127242 -117.278512 346 337ft 0kts
22-Nov-17 16:52 33.127242 -117.278512 346 337ft 0kts
22-Nov-17 16:53 33.127242 -117.278512 346 337ft 0kts
22-Nov-17 16:54 33.127242 -117.278512 346 337ft 0kts
22-Nov-17 16:55 33.127242 -117.278512 346 337ft 0kts
22-Nov-17 16:56 33.127242 -117.278512 346 337ft 0kts
22-Nov-17 16:57 33.127242 -117.278512 346 337ft 0kts
22-Nov-17 16:58 33.127242 -117.278512 346 337ft 0kts
22-Nov-17 16:59 33.127247 -117.278514 346 337ft 0kts
22-Nov-17 17:00 33.128198 -117.275238 79 337ft 19kts
22-Nov-17 17:01 33.128589 -117.272955 34 337ft 0kts
22-Nov-17 17:02 33.128649 -117.272888 45 337ft 5kts
22-Nov-17 17:03 33.127793 -117.283719 265 467ft 84kts
22-Nov-17 17:04 33.125463 -117.313453 266 1266ft 91kts
22-Nov-17 17:05 33.122949 -117.343950 267 1996ft 106kts
22-Nov-17 17:06 33.116502 -117.374799 268 2911ft 107kts
22-Nov-17 17:07 33.113528 -117.410352 266 4036ft 110kts
22-Nov-17 17:08 33.110413 -117.447099 266 5343ft 113kts
22-Nov-17 17:09 33.121586 -117.477522 331 6552ft 110kts
22-Nov-17 17:10 33.148598 -117.497664 330 6070ft 123kts
22-Nov-17 17:11 33.178280 -117.519573 330 6033ft 144kts
22-Nov-17 17:12 33.216664 -117.547224 330 6024ft 174kts
22-Nov-17 17:13 33.250609 -117.571528 330 6022ft 174kts
22-Nov-17 17:14 33.291991 -117.600494 331 6026ft 175kts
22-Nov-17 17:15 33.340574 -117.634434 331 6026ft 175kts
22-Nov-17 17:16 33.374443 -117.658105 330 6025ft 171kts
22-Nov-17 17:17 33.414703 -117.686263 330 6025ft 169kts
22-Nov-17 17:18 33.454751 -117.714277 330 6025ft 169kts
22-Nov-17 17:19 33.493102 -117.740997 330 6025ft 168kts
22-Nov-17 17:20 33.528759 -117.765643 330 5830ft 166kts
22-Nov-17 17:21 33.558552 -117.786001 330 5388ft 175kts
22-Nov-17 17:22 33.586517 -117.805269 330 5139ft 152kts
22-Nov-17 17:23 33.604438 -117.833563 283 4618ft 152kts
22-Nov-17 17:24 33.623836 -117.859665 13 4106ft 150kts
22-Nov-17 17:25 33.647063 -117.849793 21 4009ft 147kts
22-Nov-17 17:26 33.672269 -117.838974 21 4009ft 140kts
22-Nov-17 17:27 33.696742 -117.827091 32 4010ft 135kts
22-Nov-17 17:28 33.717109 -117.812935 32 4011ft 135kts
22-Nov-17 17:29 33.738684 -117.797455 44 4006ft 128kts
22-Nov-17 17:30 33.759506 -117.776304 41 4009ft 125kts
22-Nov-17 17:31 33.780748 -117.755100 41 4010ft 121kts
22-Nov-17 17:32 33.804103 -117.731659 41 4039ft 120kts
22-Nov-17 17:33 33.821390 -117.714191 41 4039ft 123kts
22-Nov-17 17:34 33.842413 -117.699546 349 4035ft 127kts
22-Nov-17 17:35 33.861760 -117.722336 302 4035ft 129kts
22-Nov-17 17:36 33.851159 -117.754629 231 3728ft 127kts
22-Nov-17 17:37 33.826154 -117.773248 208 3249ft 123kts
22-Nov-17 17:38 33.800369 -117.789711 206 2709ft 120kts
22-Nov-17 17:39 33.773708 -117.806626 207 2122ft 119kts
22-Nov-17 17:40 33.748937 -117.822361 207 1561ft 100kts
22-Nov-17 17:41 33.728486 -117.835350 205 1117ft 81kts
22-Nov-17 17:42 33.709443 -117.847434 206 701ft 77kts
22-Nov-17 17:43 33.691136 -117.859047 206 299ft 78kts
22-Nov-17 17:44 33.674768 -117.869457 213 62ft 40kts
22-Nov-17 17:45 33.673657 -117.871660 207 62ft 12kts
22-Nov-17 17:46 33.673089 -117.872654 309 62ft 0kts

Navigation Log

Ident Type
1. KCRQ Airport
2. OCN Navaid
3. KELPS Fix
4. DANAH Fix
5. KRAUZ Fix
6. BALBO Fix
7. MIDDS Fix
8. SLI Navaid
9. KSNA Airport